This is the latest recevied weather packets stored in our database for station/object YM2KRB-11. If no packets are shown the sender has not sent any weather packets the latest 10 day(s).
| Time | Temp. | Humidity | Pressure | Rain* | Wind** | Luminosity | Snow |
|---|---|---|---|---|---|---|---|
| 1778018672 | 13.89° C | 60% | 941.7 hPa | - | - | - | - |
| 1778017471 | 12.78° C | 62% | 941.7 hPa | - | - | - | - |
| 1778016270 | 12.78° C | 63% | 941.6 hPa | - | - | - | - |
| 1778015069 | 13.33° C | 62% | 941.7 hPa | - | - | - | - |
| 1778013868 | 13.89° C | 60% | 941.7 hPa | - | - | - | - |
| 1778012668 | 13.89° C | 60% | 941.8 hPa | - | - | - | - |
| 1778011467 | 13.33° C | 61% | 941.8 hPa | - | - | - | - |
| 1778010271 | 13.33° C | 61% | 941.7 hPa | - | - | - | - |
| 1778009065 | 12.78° C | 62% | 941.6 hPa | - | - | - | - |
| 1778007865 | 12.78° C | 62% | 941.7 hPa | - | - | - | - |
| 1778006664 | 13.33° C | 60% | 941.5 hPa | - | - | - | - |
| 1778005463 | 13.89° C | 59% | 941.4 hPa | - | - | - | - |
| 1778004262 | 13.33° C | 59% | 941.2 hPa | - | - | - | - |
| 1778003061 | 14.44° C | 54% | 941 hPa | - | - | - | - |
| 1778001860 | 14.44° C | 52% | 940.9 hPa | - | - | - | - |
| 1778000660 | 14.44° C | 53% | 940.7 hPa | - | - | - | - |
| 1777999459 | 15.56° C | 50% | 940.4 hPa | - | - | - | - |
| 1777998258 | 14.44° C | 52% | 940.3 hPa | - | - | - | - |
| 1777997057 | 16.11° C | 47% | 940.2 hPa | - | - | - | - |
| 1777995859 | 17.78° C | 44% | 940.1 hPa | - | - | - | - |
| 1777994656 | 17.78° C | 43% | 940 hPa | - | - | - | - |
| 1777993455 | 18.33° C | 41% | 940 hPa | - | - | - | - |
| 1777992254 | 18.89° C | 40% | 939.9 hPa | - | - | - | - |
| 1777991053 | 21.67° C | 35% | 939.6 hPa | - | - | - | - |
| 1777989852 | 21.67° C | 35% | 939.7 hPa | - | - | - | - |
* Rain since midnight (hover to see other rain measurements)
** Current wind speed in m/s (hover to see current wind gust speed)